createdAt,value
2023-06-06T00:00:07.627Z,10.57
2023-06-06T00:02:34.526Z,13.50
2023-06-06T00:05:02.275Z,11.80
2023-06-06T00:07:30.046Z,12.13
2023-06-06T00:09:56.932Z,16.30
2023-06-06T00:12:25.524Z,12.33
2023-06-06T00:14:52.493Z,8.37
2023-06-06T00:17:19.345Z,9.97
2023-06-06T00:19:46.727Z,9.73
2023-06-06T00:22:13.610Z,11.43
2023-06-06T00:24:40.470Z,8.13
2023-06-06T00:27:08.089Z,10.37
2023-06-06T00:29:34.985Z,10.87
2023-06-06T00:32:01.889Z,11.43
2023-06-06T00:34:28.799Z,16.10
2023-06-06T00:36:55.729Z,11.27
2023-06-06T00:39:22.573Z,11.73
2023-06-06T00:41:49.956Z,12.90
2023-06-06T00:44:16.996Z,15.60
2023-06-06T00:46:44.857Z,9.47
2023-06-06T00:49:14.625Z,12.23
2023-06-06T00:51:42.508Z,12.70
2023-06-06T00:54:14.145Z,18.13
2023-06-06T00:56:47.329Z,12.73
2023-06-06T00:59:16.006Z,14.90
2023-06-06T01:01:44.242Z,11.90
2023-06-06T01:04:11.495Z,20.30
2023-06-06T01:06:38.742Z,10.60
2023-06-06T01:09:09.184Z,11.73
2023-06-06T01:11:52.127Z,9.10
2023-06-06T01:14:34.504Z,15.87
2023-06-06T01:17:04.246Z,16.70
2023-06-06T01:19:33.439Z,19.60
2023-06-06T01:22:00.890Z,12.23
2023-06-06T01:24:31.320Z,13.87
2023-06-06T01:26:58.216Z,22.60
2023-06-06T01:29:25.171Z,11.53
2023-06-06T01:32:08.312Z,19.00
2023-06-06T01:34:43.267Z,14.23
2023-06-06T01:37:28.785Z,15.33
2023-06-06T01:39:58.772Z,15.23
2023-06-06T01:42:27.098Z,14.40
2023-06-06T01:44:55.017Z,17.73
2023-06-06T01:47:22.799Z,9.80
2023-06-06T01:49:51.036Z,14.93
2023-06-06T01:52:18.125Z,16.53
2023-06-06T01:54:45.451Z,12.33
2023-06-06T01:57:12.709Z,10.87
2023-06-06T01:59:40.274Z,16.00
2023-06-06T02:02:07.778Z,14.60
2023-06-06T02:04:34.718Z,18.60
2023-06-06T02:07:01.842Z,13.83
2023-06-06T02:09:28.681Z,20.47
2023-06-06T02:11:55.532Z,17.90
2023-06-06T02:14:22.689Z,17.57
2023-06-06T02:16:50.104Z,17.23
2023-06-06T02:19:17.678Z,16.03
2023-06-06T02:21:45.299Z,13.60
2023-06-06T02:24:12.208Z,20.60
2023-06-06T02:26:42.939Z,16.83
2023-06-06T02:29:10.106Z,17.17
2023-06-06T02:31:40.538Z,16.33
2023-06-06T02:34:07.460Z,28.40
2023-06-06T02:36:35.139Z,40.80
2023-06-06T02:39:02.210Z,18.97
2023-06-06T02:41:29.623Z,13.93
2023-06-06T02:43:56.768Z,25.63
2023-06-06T02:46:23.776Z,16.00
2023-06-06T02:48:51.092Z,19.17
2023-06-06T02:51:18.682Z,23.27
2023-06-06T02:53:45.672Z,18.03
2023-06-06T02:56:15.714Z,23.73
2023-06-06T02:58:42.580Z,17.67
2023-06-06T03:01:11.047Z,20.30
2023-06-06T03:03:38.215Z,28.20
2023-06-06T03:06:07.666Z,13.77
2023-06-06T03:08:35.073Z,13.27
2023-06-06T03:11:02.058Z,19.60
2023-06-06T03:13:28.980Z,17.20
2023-06-06T03:15:56.096Z,22.50
2023-06-06T03:18:23.053Z,17.33
2023-06-06T03:20:54.433Z,18.40
2023-06-06T03:23:22.675Z,17.33
2023-06-06T03:25:53.096Z,21.63
2023-06-06T03:28:22.526Z,20.97
2023-06-06T03:30:49.634Z,26.97
2023-06-06T03:33:17.058Z,19.23
2023-06-06T03:35:44.240Z,20.17
2023-06-06T03:38:11.132Z,20.67
2023-06-06T03:40:38.443Z,21.00
2023-06-06T03:43:05.344Z,15.87
2023-06-06T03:45:32.186Z,17.77
2023-06-06T03:47:59.107Z,21.40
2023-06-06T03:50:26.222Z,18.37
2023-06-06T03:52:53.896Z,19.97
2023-06-06T03:55:20.957Z,22.23
2023-06-06T03:57:47.879Z,18.10
2023-06-06T04:00:15.491Z,17.87
2023-06-06T04:02:43.127Z,14.87
2023-06-06T04:05:10.521Z,19.30
2023-06-06T04:07:37.500Z,16.47
2023-06-06T04:10:04.635Z,12.40
2023-06-06T04:12:31.830Z,14.80
2023-06-06T04:14:58.786Z,15.33
2023-06-06T04:17:25.826Z,15.43
2023-06-06T04:19:52.791Z,12.17
2023-06-06T04:22:21.618Z,12.40
2023-06-06T04:24:48.560Z,19.10
2023-06-06T04:27:17.911Z,15.97
2023-06-06T04:29:45.694Z,19.47
2023-06-06T04:32:20.398Z,13.20
2023-06-06T04:34:47.986Z,13.43
2023-06-06T04:37:18.736Z,14.83
2023-06-06T04:39:45.971Z,14.33
2023-06-06T04:42:13.619Z,11.80
2023-06-06T04:44:44.102Z,19.57
2023-06-06T04:47:12.312Z,17.50
2023-06-06T04:49:41.341Z,14.10
2023-06-06T04:52:11.648Z,14.93
2023-06-06T04:54:39.874Z,16.13
2023-06-06T04:57:08.372Z,14.10
2023-06-06T04:59:35.265Z,13.97
2023-06-06T05:02:03.733Z,16.10
2023-06-06T05:04:32.632Z,13.10
2023-06-06T05:07:00.850Z,11.57
2023-06-06T05:09:28.207Z,14.33
2023-06-06T05:11:57.529Z,12.10
2023-06-06T05:14:27.746Z,15.07
2023-06-06T05:16:55.572Z,11.80
2023-06-06T05:19:22.653Z,14.60
2023-06-06T05:21:49.567Z,17.13
2023-06-06T05:24:16.920Z,11.10
2023-06-06T05:26:44.044Z,14.37
2023-06-06T05:29:11.565Z,15.90
2023-06-06T05:31:38.922Z,9.60
2023-06-06T05:34:05.949Z,11.60
2023-06-06T05:36:32.863Z,15.03
2023-06-06T05:39:00.529Z,16.80
2023-06-06T05:41:28.063Z,15.80
2023-06-06T05:43:55.045Z,18.37
2023-06-06T05:46:21.912Z,9.07
2023-06-06T05:48:48.919Z,18.60
2023-06-06T05:51:16.992Z,17.63
2023-06-06T05:53:47.399Z,12.10
2023-06-06T05:56:15.532Z,11.20
2023-06-06T05:58:43.132Z,13.40
2023-06-06T06:01:10.810Z,15.63
2023-06-06T06:03:40.006Z,13.77
2023-06-06T06:06:09.984Z,19.00
2023-06-06T06:08:37.909Z,10.00
2023-06-06T06:11:07.645Z,14.70
2023-06-06T06:13:34.980Z,10.67
2023-06-06T06:16:01.933Z,9.80
2023-06-06T06:18:28.942Z,11.50
2023-06-06T06:20:55.928Z,11.10
2023-06-06T06:23:22.860Z,9.67
2023-06-06T06:25:49.754Z,9.50
2023-06-06T06:28:24.996Z,14.53
2023-06-06T06:30:52.235Z,9.80
2023-06-06T06:33:19.303Z,17.70
2023-06-06T06:35:46.391Z,14.20
2023-06-06T06:38:13.385Z,11.30
2023-06-06T06:40:40.316Z,13.73
2023-06-06T06:43:07.246Z,15.80
2023-06-06T06:45:34.306Z,17.10
2023-06-06T06:48:02.571Z,11.90
2023-06-06T06:50:29.747Z,11.77
2023-06-06T06:52:57.613Z,10.27
2023-06-06T06:55:25.370Z,16.67
2023-06-06T06:57:53.093Z,12.17
2023-06-06T07:00:24.403Z,14.40
2023-06-06T07:02:57.680Z,12.17
2023-06-06T07:05:25.274Z,13.17
2023-06-06T07:07:55.988Z,16.97
2023-06-06T07:10:25.109Z,10.10
2023-06-06T07:12:53.875Z,12.50
2023-06-06T07:15:21.713Z,10.00
2023-06-06T07:17:51.074Z,18.90
2023-06-06T07:20:23.852Z,11.10
2023-06-06T07:22:57.378Z,10.70
2023-06-06T07:25:24.608Z,12.70
2023-06-06T07:27:52.005Z,11.20
2023-06-06T07:30:18.948Z,15.70
2023-06-06T07:32:48.536Z,11.33
2023-06-06T07:35:17.830Z,11.10
2023-06-06T07:37:44.709Z,10.03
2023-06-06T07:40:13.284Z,12.80
2023-06-06T07:42:43.874Z,12.93
2023-06-06T07:45:11.442Z,13.10
2023-06-06T07:47:40.453Z,9.77
2023-06-06T07:50:08.351Z,10.20
2023-06-06T07:52:36.231Z,9.63
2023-06-06T07:55:05.360Z,13.17
2023-06-06T07:57:32.261Z,12.00
2023-06-06T08:00:00.117Z,23.50
2023-06-06T08:02:27.431Z,16.53
2023-06-06T08:04:54.583Z,11.93
2023-06-06T08:07:21.852Z,11.17
2023-06-06T08:09:48.751Z,11.00
2023-06-06T08:12:15.686Z,11.33
2023-06-06T08:14:43.184Z,13.67
2023-06-06T08:17:10.449Z,10.90
2023-06-06T08:19:37.646Z,9.90
2023-06-06T08:22:04.917Z,11.03
2023-06-06T08:24:31.975Z,16.63
2023-06-06T08:26:59.267Z,10.10
2023-06-06T08:29:27.370Z,17.77
2023-06-06T08:31:55.538Z,9.60
2023-06-06T08:34:23.392Z,17.03
2023-06-06T08:36:50.964Z,14.77
2023-06-06T08:39:21.123Z,17.00
2023-06-06T08:41:55.819Z,11.80
2023-06-06T08:44:24.557Z,11.13
2023-06-06T08:46:53.836Z,11.67
2023-06-06T08:49:21.692Z,13.97
2023-06-06T08:51:50.181Z,12.20
2023-06-06T08:54:19.630Z,13.60
2023-06-06T08:56:46.728Z,15.87
2023-06-06T08:59:15.698Z,17.27
2023-06-06T09:01:42.784Z,15.87
2023-06-06T09:04:09.998Z,11.37
2023-06-06T09:06:42.420Z,10.20
2023-06-06T09:09:10.705Z,12.27
2023-06-06T09:11:38.080Z,18.30
2023-06-06T09:14:08.820Z,12.97
2023-06-06T09:16:36.399Z,13.10
2023-06-06T09:19:04.251Z,15.90
2023-06-06T09:21:34.414Z,10.10
2023-06-06T09:24:02.916Z,15.13
2023-06-06T09:26:31.479Z,13.40
2023-06-06T09:29:08.537Z,18.83
2023-06-06T09:31:40.032Z,16.37
2023-06-06T09:34:09.891Z,11.03
2023-06-06T09:36:41.643Z,14.80
2023-06-06T09:39:16.020Z,15.33
2023-06-06T09:41:46.942Z,10.07
2023-06-06T09:44:21.849Z,10.97
2023-06-06T09:46:50.381Z,25.10
2023-06-06T09:49:18.793Z,12.53
2023-06-06T09:51:46.308Z,11.77
2023-06-06T09:54:13.467Z,10.87
2023-06-06T09:56:42.354Z,9.50
2023-06-06T09:59:09.754Z,12.30
2023-06-06T10:01:38.853Z,10.43
2023-06-06T10:04:06.970Z,13.50
2023-06-06T10:06:39.106Z,10.00
2023-06-06T10:09:06.914Z,9.53
2023-06-06T10:11:37.756Z,11.60
2023-06-06T10:14:06.937Z,12.97
2023-06-06T10:16:37.043Z,11.77
2023-06-06T10:19:05.274Z,13.67
2023-06-06T10:21:33.380Z,11.53
2023-06-06T10:24:00.454Z,13.63
2023-06-06T10:26:52.729Z,9.67
2023-06-06T10:29:52.901Z,60.33
2023-06-06T10:32:44.291Z,9.13
2023-06-06T10:35:13.949Z,10.67
2023-06-06T10:37:40.873Z,11.17
2023-06-06T10:40:11.095Z,18.43
2023-06-06T10:42:40.428Z,11.40
2023-06-06T10:45:08.595Z,10.90
2023-06-06T10:47:39.950Z,10.13
2023-06-06T10:50:09.757Z,9.57
2023-06-06T10:52:46.127Z,9.27
2023-06-06T10:55:40.770Z,6.77
2023-06-06T10:58:18.081Z,9.00
2023-06-06T11:00:46.364Z,10.00
2023-06-06T11:03:33.493Z,14.70
2023-06-06T11:06:06.653Z,14.83
2023-06-06T11:08:37.791Z,8.27
2023-06-06T11:11:20.964Z,8.03
2023-06-06T11:14:04.790Z,7.40
2023-06-06T11:16:39.964Z,10.23
2023-06-06T11:19:10.114Z,5.63
2023-06-06T11:21:41.421Z,5.67
2023-06-06T11:24:09.527Z,5.43
2023-06-06T11:26:38.163Z,5.37
2023-06-06T11:29:06.591Z,5.87
2023-06-06T11:31:36.698Z,8.23
2023-06-06T11:34:08.741Z,5.53
2023-06-06T11:36:36.861Z,5.30
2023-06-06T11:39:06.008Z,7.27
2023-06-06T11:41:38.158Z,4.70
2023-06-06T11:44:05.244Z,4.63
2023-06-06T11:46:51.077Z,3.97
2023-06-06T11:49:22.572Z,6.23
2023-06-06T11:51:59.488Z,6.37
2023-06-06T11:54:31.045Z,5.00
2023-06-06T11:57:04.184Z,4.47
2023-06-06T11:59:31.657Z,5.27
2023-06-06T12:01:59.499Z,5.93
2023-06-06T12:04:27.484Z,6.53
2023-06-06T12:06:56.634Z,6.33
2023-06-06T12:09:28.038Z,15.10
2023-06-06T12:12:05.745Z,5.70
2023-06-06T12:14:34.721Z,5.63
2023-06-06T12:17:07.090Z,4.60
2023-06-06T12:19:34.904Z,5.00
2023-06-06T12:22:02.086Z,5.10
2023-06-06T12:24:34.035Z,4.90
2023-06-06T12:27:04.050Z,5.70
2023-06-06T12:29:37.913Z,6.53
2023-06-06T12:32:40.467Z,6.03
2023-06-06T12:35:08.010Z,4.73
2023-06-06T12:37:42.812Z,5.17
2023-06-06T12:40:35.392Z,5.07
2023-06-06T12:43:06.311Z,4.20
2023-06-06T12:45:37.998Z,4.90
2023-06-06T12:48:05.436Z,3.97
2023-06-06T12:50:32.507Z,5.47
2023-06-06T12:52:59.467Z,9.63
2023-06-06T12:55:26.633Z,4.73
2023-06-06T12:57:53.638Z,5.00
2023-06-06T13:00:21.204Z,6.50
2023-06-06T13:02:48.481Z,4.13
2023-06-06T13:05:15.650Z,9.33
2023-06-06T13:07:42.640Z,4.27
2023-06-06T13:10:10.493Z,3.77
2023-06-06T13:15:16.767Z,4.87
2023-06-06T13:17:43.671Z,7.07
2023-06-06T13:20:12.390Z,8.13
2023-06-06T13:22:41.786Z,5.10
2023-06-06T13:25:09.603Z,8.10
2023-06-06T13:27:36.542Z,8.53
2023-06-06T13:30:03.746Z,3.07
2023-06-06T13:32:30.848Z,4.63
2023-06-06T13:34:57.842Z,9.97
2023-06-06T13:37:25.342Z,3.67
2023-06-06T13:39:52.254Z,4.20
2023-06-06T13:42:19.150Z,6.20
2023-06-06T13:44:46.056Z,7.27
2023-06-06T13:47:13.072Z,7.27
2023-06-06T13:49:40.816Z,6.30
2023-06-06T13:52:08.158Z,5.00
2023-06-06T13:54:35.167Z,6.97
2023-06-06T13:57:04.311Z,5.03
2023-06-06T13:59:33.374Z,3.80
2023-06-06T14:02:00.709Z,3.37
2023-06-06T14:04:27.993Z,4.37
2023-06-06T14:06:56.247Z,14.30
2023-06-06T14:09:23.891Z,5.90
2023-06-06T14:11:51.519Z,6.97
2023-06-06T14:14:18.893Z,9.87
2023-06-06T14:16:46.112Z,4.30
2023-06-06T14:19:26.246Z,4.47
2023-06-06T14:22:20.105Z,5.60
2023-06-06T14:24:47.550Z,3.50
2023-06-06T14:27:14.575Z,9.10
2023-06-06T14:29:41.648Z,3.73
2023-06-06T14:32:12.484Z,3.80
2023-06-06T14:34:40.957Z,4.43
2023-06-06T14:37:08.334Z,4.20
2023-06-06T14:39:35.855Z,6.67
2023-06-06T14:42:02.934Z,3.77
2023-06-06T14:44:37.898Z,6.17
2023-06-06T14:47:09.411Z,5.30
2023-06-06T14:49:43.191Z,6.30
2023-06-06T14:52:10.917Z,3.73
2023-06-06T14:54:40.536Z,5.17
2023-06-06T14:57:07.926Z,4.27
2023-06-06T14:59:34.934Z,6.77
2023-06-06T15:02:02.024Z,4.67
2023-06-06T15:04:29.072Z,3.80
2023-06-06T15:06:56.361Z,4.00
2023-06-06T15:09:23.309Z,4.03
2023-06-06T15:11:51.974Z,3.53
2023-06-06T15:14:20.022Z,4.20
2023-06-06T15:16:47.039Z,4.33
2023-06-06T15:19:15.236Z,4.93
2023-06-06T15:21:42.342Z,4.20
2023-06-06T15:24:09.445Z,8.73
2023-06-06T15:26:36.880Z,4.43
2023-06-06T15:29:03.862Z,4.97
2023-06-06T15:31:31.224Z,15.37
2023-06-06T15:33:58.125Z,4.70
2023-06-06T15:36:27.230Z,5.27
2023-06-06T15:38:54.093Z,4.40
2023-06-06T15:41:21.066Z,7.27
2023-06-06T15:43:47.939Z,11.77
2023-06-06T15:46:14.816Z,5.07
2023-06-06T15:48:41.747Z,3.60
2023-06-06T15:51:08.605Z,4.83
2023-06-06T15:53:35.465Z,4.30
2023-06-06T15:56:02.464Z,4.50
2023-06-06T15:58:29.353Z,4.27
2023-06-06T16:00:56.287Z,4.60
2023-06-06T16:03:23.200Z,4.63
2023-06-06T16:05:50.147Z,4.77
2023-06-06T16:08:17.372Z,4.33
2023-06-06T16:10:44.370Z,7.93
2023-06-06T16:13:11.318Z,6.60
2023-06-06T16:15:38.235Z,3.87
2023-06-06T16:18:05.306Z,4.30
2023-06-06T16:20:32.552Z,5.60
2023-06-06T16:22:59.796Z,7.93
2023-06-06T16:25:26.788Z,4.17
2023-06-06T16:27:53.688Z,7.37
2023-06-06T16:30:20.594Z,6.00
2023-06-06T16:32:48.601Z,5.20
2023-06-06T16:35:15.570Z,6.60
2023-06-06T16:37:42.443Z,4.73
2023-06-06T16:40:11.073Z,5.07
2023-06-06T16:42:38.018Z,4.40
2023-06-06T16:45:05.416Z,5.73
2023-06-06T16:47:32.898Z,4.33
2023-06-06T16:50:00.066Z,4.90
2023-06-06T16:52:27.073Z,4.23
2023-06-06T16:54:54.550Z,6.23
2023-06-06T16:57:21.536Z,4.50
2023-06-06T16:59:50.638Z,4.90
2023-06-06T17:02:17.559Z,4.50
2023-06-06T17:04:44.478Z,3.47
2023-06-06T17:07:11.467Z,7.20
2023-06-06T17:09:38.340Z,4.30
2023-06-06T17:12:07.077Z,4.07
2023-06-06T17:14:33.957Z,4.70
2023-06-06T17:17:00.899Z,4.93
2023-06-06T17:19:27.817Z,7.73
2023-06-06T17:21:54.792Z,3.97
2023-06-06T17:24:21.693Z,4.23
2023-06-06T17:26:48.606Z,3.70
2023-06-06T17:29:15.611Z,3.90
2023-06-06T17:31:42.622Z,4.63
2023-06-06T17:34:09.728Z,3.97
2023-06-06T17:36:37.021Z,19.37
2023-06-06T17:39:04.125Z,5.40
2023-06-06T17:41:31.024Z,4.00
2023-06-06T17:43:57.878Z,4.80
2023-06-06T17:46:26.264Z,3.80
2023-06-06T17:48:54.248Z,6.37
2023-06-06T17:51:21.334Z,7.63
2023-06-06T17:53:48.215Z,4.93
2023-06-06T17:56:15.175Z,3.83
2023-06-06T17:58:42.112Z,3.50
2023-06-06T18:01:09.004Z,3.80
2023-06-06T18:03:36.043Z,3.83
2023-06-06T18:06:03.004Z,4.77
2023-06-06T18:08:29.869Z,5.47
2023-06-06T18:10:56.795Z,3.57
2023-06-06T18:13:24.285Z,3.90
2023-06-06T18:15:51.164Z,4.27
2023-06-06T18:18:19.585Z,10.80
2023-06-06T18:20:50.474Z,3.70
2023-06-06T18:23:19.860Z,3.20
2023-06-06T18:25:48.792Z,4.50
2023-06-06T18:28:16.361Z,9.17
2023-06-06T18:30:43.245Z,4.50
2023-06-06T18:33:10.371Z,3.50
2023-06-06T18:35:37.519Z,3.63
2023-06-06T18:38:05.510Z,13.20
2023-06-06T18:40:32.348Z,7.57
2023-06-06T18:42:59.195Z,3.70
2023-06-06T18:45:26.779Z,4.53
2023-06-06T18:47:57.235Z,9.93
2023-06-06T18:50:24.387Z,3.83
2023-06-06T18:52:51.260Z,8.33
2023-06-06T18:55:18.419Z,6.60
2023-06-06T18:57:45.580Z,11.47
2023-06-06T19:00:14.186Z,9.00
2023-06-06T19:02:42.979Z,4.00
2023-06-06T19:05:11.724Z,4.93
2023-06-06T19:07:38.796Z,4.43
2023-06-06T19:10:07.826Z,4.33
2023-06-06T19:15:14.056Z,6.80
2023-06-06T19:17:41.119Z,9.67
2023-06-06T19:20:10.099Z,4.07
2023-06-06T19:22:37.065Z,6.00
2023-06-06T19:25:04.403Z,20.33
2023-06-06T19:27:31.605Z,4.03
2023-06-06T19:29:58.476Z,7.10
2023-06-06T19:32:25.970Z,8.03
2023-06-06T19:34:53.254Z,5.63
2023-06-06T19:37:20.230Z,12.63
2023-06-06T19:39:50.104Z,4.03
2023-06-06T19:42:17.105Z,4.33
2023-06-06T19:44:44.142Z,4.17
2023-06-06T19:47:11.180Z,4.33
2023-06-06T19:49:38.657Z,8.33
2023-06-06T19:52:06.471Z,6.43
2023-06-06T19:54:33.798Z,7.50
2023-06-06T19:57:00.881Z,10.40
2023-06-06T19:59:28.984Z,6.60
2023-06-06T20:01:55.994Z,7.07
2023-06-06T20:04:22.888Z,6.90
2023-06-06T20:06:50.368Z,4.83
2023-06-06T20:09:17.506Z,8.93
2023-06-06T20:11:44.407Z,8.07
2023-06-06T20:14:11.376Z,10.27
2023-06-06T20:16:38.440Z,5.30
2023-06-06T20:19:05.449Z,8.40
2023-06-06T20:21:32.417Z,16.10
2023-06-06T20:23:59.337Z,6.90
2023-06-06T20:26:26.592Z,5.90
2023-06-06T20:28:53.478Z,6.23
2023-06-06T20:31:20.437Z,6.70
2023-06-06T20:33:47.451Z,7.40
2023-06-06T20:36:14.414Z,11.77
2023-06-06T20:38:47.623Z,6.20
2023-06-06T20:41:14.557Z,6.27
2023-06-06T20:43:41.467Z,11.23
2023-06-06T20:46:08.376Z,6.13
2023-06-06T20:48:35.256Z,13.50
2023-06-06T20:51:02.412Z,9.50
2023-06-06T20:53:30.321Z,6.93
2023-06-06T20:55:57.535Z,9.60
2023-06-06T20:58:28.513Z,6.40
2023-06-06T21:00:58.569Z,9.37
2023-06-06T21:03:25.895Z,14.60
2023-06-06T21:05:52.959Z,19.43
2023-06-06T21:08:20.061Z,15.00
2023-06-06T21:10:48.876Z,12.60
2023-06-06T21:13:17.122Z,12.93
2023-06-06T21:15:44.599Z,9.90
2023-06-06T21:18:11.745Z,13.33
2023-06-06T21:20:41.263Z,11.20
2023-06-06T21:23:09.970Z,10.40
2023-06-06T21:25:36.815Z,12.10
2023-06-06T21:28:03.780Z,16.17
2023-06-06T21:30:30.936Z,12.40
2023-06-06T21:32:57.942Z,10.20
2023-06-06T21:35:25.309Z,10.77
2023-06-06T21:37:52.140Z,11.10
2023-06-06T21:40:19.045Z,13.40
2023-06-06T21:42:48.156Z,17.10
2023-06-06T21:45:15.522Z,13.67
2023-06-06T21:47:42.527Z,17.23
2023-06-06T21:50:12.193Z,16.27
2023-06-06T21:52:39.495Z,24.53
2023-06-06T21:55:06.957Z,18.63
2023-06-06T21:57:34.902Z,17.20
2023-06-06T22:00:02.357Z,23.10
2023-06-06T22:02:29.837Z,18.97
2023-06-06T22:04:56.733Z,23.57
2023-06-06T22:07:25.878Z,22.70
2023-06-06T22:09:52.983Z,20.27
2023-06-06T22:12:19.885Z,24.70
2023-06-06T22:14:47.809Z,19.50
2023-06-06T22:17:14.745Z,22.83
2023-06-06T22:19:41.608Z,21.60
2023-06-06T22:22:08.818Z,25.40
2023-06-06T22:24:35.933Z,26.97
2023-06-06T22:27:02.931Z,16.47
2023-06-06T22:29:29.887Z,20.63
2023-06-06T22:31:57.001Z,19.80
2023-06-06T22:34:23.901Z,18.50
2023-06-06T22:36:50.968Z,18.10
2023-06-06T22:39:18.008Z,19.03
2023-06-06T22:41:44.949Z,16.97
2023-06-06T22:44:12.069Z,21.20
2023-06-06T22:46:39.194Z,15.20
2023-06-06T22:49:06.169Z,26.07
2023-06-06T22:51:34.633Z,21.40
2023-06-06T22:54:03.449Z,21.40
2023-06-06T22:56:30.549Z,25.83
2023-06-06T22:58:58.647Z,29.57
2023-06-06T23:01:25.715Z,24.03
2023-06-06T23:03:52.724Z,17.10
2023-06-06T23:06:19.698Z,27.60
2023-06-06T23:08:46.807Z,27.33
2023-06-06T23:11:13.708Z,21.57
2023-06-06T23:13:43.927Z,20.27
2023-06-06T23:16:10.840Z,22.73
2023-06-06T23:18:37.874Z,17.27
2023-06-06T23:21:04.731Z,13.10
2023-06-06T23:23:32.738Z,23.20
2023-06-06T23:25:59.763Z,13.50
2023-06-06T23:28:26.961Z,18.27
2023-06-06T23:30:53.914Z,24.10
2023-06-06T23:33:20.962Z,14.50
2023-06-06T23:35:47.840Z,25.67
2023-06-06T23:38:14.898Z,26.40
2023-06-06T23:40:41.859Z,20.33
2023-06-06T23:43:08.743Z,17.47
2023-06-06T23:45:35.928Z,21.10
2023-06-06T23:48:02.879Z,19.80
2023-06-06T23:50:29.829Z,12.23
2023-06-06T23:52:56.704Z,21.67
2023-06-06T23:55:23.584Z,18.13
2023-06-06T23:57:50.569Z,15.73
